sensor_id;sensor_type;location;lat;lon;timestamp;P1;durP1;ratioP1;P2;durP2;ratioP2
22814;SDS011;11574;51.058;13.712;2023-02-24T00:00:13;87.40;;;41.10;;
22814;SDS011;11574;51.058;13.712;2023-02-24T00:05:35;85.97;;;40.43;;
22814;SDS011;11574;51.058;13.712;2023-02-24T00:10:38;80.83;;;40.43;;
22814;SDS011;11574;51.058;13.712;2023-02-24T00:15:40;77.00;;;39.37;;
22814;SDS011;11574;51.058;13.712;2023-02-24T00:20:44;81.70;;;40.50;;
22814;SDS011;11574;51.058;13.712;2023-02-24T00:25:46;73.07;;;35.13;;
22814;SDS011;11574;51.058;13.712;2023-02-24T00:30:48;67.50;;;34.47;;
22814;SDS011;11574;51.058;13.712;2023-02-24T00:35:52;68.13;;;34.20;;
22814;SDS011;11574;51.058;13.712;2023-02-24T00:40:54;69.13;;;33.83;;
22814;SDS011;11574;51.058;13.712;2023-02-24T00:45:58;73.03;;;36.47;;
22814;SDS011;11574;51.058;13.712;2023-02-24T00:51:03;62.63;;;33.27;;
22814;SDS011;11574;51.058;13.712;2023-02-24T00:56:07;66.30;;;33.50;;
22814;SDS011;11574;51.058;13.712;2023-02-24T01:01:11;63.13;;;33.03;;
22814;SDS011;11574;51.058;13.712;2023-02-24T01:06:15;54.97;;;28.60;;
22814;SDS011;11574;51.058;13.712;2023-02-24T01:11:21;51.27;;;27.30;;
22814;SDS011;11574;51.058;13.712;2023-02-24T01:16:41;49.80;;;26.53;;
22814;SDS011;11574;51.058;13.712;2023-02-24T01:21:47;44.30;;;23.80;;
22814;SDS011;11574;51.058;13.712;2023-02-24T01:26:52;45.73;;;24.50;;
22814;SDS011;11574;51.058;13.712;2023-02-24T01:31:54;48.57;;;24.13;;
22814;SDS011;11574;51.058;13.712;2023-02-24T01:36:59;50.37;;;24.03;;
22814;SDS011;11574;51.058;13.712;2023-02-24T01:42:02;37.07;;;22.03;;
22814;SDS011;11574;51.058;13.712;2023-02-24T01:47:06;35.87;;;19.53;;
22814;SDS011;11574;51.058;13.712;2023-02-24T01:52:11;30.03;;;17.87;;
22814;SDS011;11574;51.058;13.712;2023-02-24T01:57:14;29.30;;;16.73;;
22814;SDS011;11574;51.058;13.712;2023-02-24T02:02:18;24.23;;;15.33;;
22814;SDS011;11574;51.058;13.712;2023-02-24T02:07:23;22.70;;;14.43;;
22814;SDS011;11574;51.058;13.712;2023-02-24T02:12:27;23.47;;;13.97;;
22814;SDS011;11574;51.058;13.712;2023-02-24T02:17:33;24.57;;;14.53;;
22814;SDS011;11574;51.058;13.712;2023-02-24T02:22:49;25.77;;;14.57;;
22814;SDS011;11574;51.058;13.712;2023-02-24T02:28:03;23.47;;;14.43;;
22814;SDS011;11574;51.058;13.712;2023-02-24T02:38:41;20.50;;;13.03;;
22814;SDS011;11574;51.058;13.712;2023-02-24T02:43:49;18.83;;;12.17;;
22814;SDS011;11574;51.058;13.712;2023-02-24T02:48:53;21.17;;;13.23;;
22814;SDS011;11574;51.058;13.712;2023-02-24T02:53:59;25.20;;;13.93;;
22814;SDS011;11574;51.058;13.712;2023-02-24T02:59:03;23.10;;;14.10;;
22814;SDS011;11574;51.058;13.712;2023-02-24T03:04:07;26.37;;;14.20;;
22814;SDS011;11574;51.058;13.712;2023-02-24T03:09:13;21.50;;;13.47;;
22814;SDS011;11574;51.058;13.712;2023-02-24T03:14:18;21.97;;;12.60;;
22814;SDS011;11574;51.058;13.712;2023-02-24T03:19:25;18.37;;;10.27;;
22814;SDS011;11574;51.058;13.712;2023-02-24T03:24:31;21.47;;;11.00;;
22814;SDS011;11574;51.058;13.712;2023-02-24T03:29:38;25.43;;;10.53;;
22814;SDS011;11574;51.058;13.712;2023-02-24T03:34:46;24.77;;;11.67;;
22814;SDS011;11574;51.058;13.712;2023-02-24T03:39:51;25.33;;;11.70;;
22814;SDS011;11574;51.058;13.712;2023-02-24T03:44:55;30.97;;;11.43;;
22814;SDS011;11574;51.058;13.712;2023-02-24T03:49:57;27.93;;;11.20;;
22814;SDS011;11574;51.058;13.712;2023-02-24T03:55:06;25.00;;;11.50;;
22814;SDS011;11574;51.058;13.712;2023-02-24T04:00:11;31.60;;;13.40;;
22814;SDS011;11574;51.058;13.712;2023-02-24T04:05:21;28.13;;;11.67;;
22814;SDS011;11574;51.058;13.712;2023-02-24T04:10:29;27.77;;;11.70;;
22814;SDS011;11574;51.058;13.712;2023-02-24T04:15:33;33.57;;;12.00;;
22814;SDS011;11574;51.058;13.712;2023-02-24T04:20:38;23.63;;;10.33;;
22814;SDS011;11574;51.058;13.712;2023-02-24T04:25:43;28.23;;;10.80;;
22814;SDS011;11574;51.058;13.712;2023-02-24T04:30:48;27.20;;;10.73;;
22814;SDS011;11574;51.058;13.712;2023-02-24T04:35:51;30.67;;;11.73;;
22814;SDS011;11574;51.058;13.712;2023-02-24T04:40:54;25.57;;;10.97;;
22814;SDS011;11574;51.058;13.712;2023-02-24T04:45:57;28.77;;;11.53;;
22814;SDS011;11574;51.058;13.712;2023-02-24T04:50:59;31.43;;;10.97;;
22814;SDS011;11574;51.058;13.712;2023-02-24T04:56:06;25.70;;;10.20;;
22814;SDS011;11574;51.058;13.712;2023-02-24T05:01:09;21.17;;;9.73;;
22814;SDS011;11574;51.058;13.712;2023-02-24T05:06:12;22.47;;;9.53;;
22814;SDS011;11574;51.058;13.712;2023-02-24T05:11:16;28.97;;;10.43;;
22814;SDS011;11574;51.058;13.712;2023-02-24T05:16:18;22.77;;;9.90;;
22814;SDS011;11574;51.058;13.712;2023-02-24T05:21:22;22.23;;;10.00;;
22814;SDS011;11574;51.058;13.712;2023-02-24T05:26:38;27.40;;;9.97;;
22814;SDS011;11574;51.058;13.712;2023-02-24T05:31:41;24.07;;;10.00;;
22814;SDS011;11574;51.058;13.712;2023-02-24T05:36:43;23.77;;;9.90;;
22814;SDS011;11574;51.058;13.712;2023-02-24T05:41:47;21.77;;;9.80;;
22814;SDS011;11574;51.058;13.712;2023-02-24T05:46:54;14.50;;;7.13;;
22814;SDS011;11574;51.058;13.712;2023-02-24T05:51:58;16.70;;;7.43;;
22814;SDS011;11574;51.058;13.712;2023-02-24T05:57:02;19.63;;;7.80;;
22814;SDS011;11574;51.058;13.712;2023-02-24T06:02:11;22.07;;;7.47;;
22814;SDS011;11574;51.058;13.712;2023-02-24T06:07:14;14.03;;;5.20;;
22814;SDS011;11574;51.058;13.712;2023-02-24T06:12:20;14.70;;;5.97;;
22814;SDS011;11574;51.058;13.712;2023-02-24T06:17:22;7.53;;;2.93;;
22814;SDS011;11574;51.058;13.712;2023-02-24T06:22:25;9.03;;;2.43;;
22814;SDS011;11574;51.058;13.712;2023-02-24T06:27:29;11.23;;;2.37;;
22814;SDS011;11574;51.058;13.712;2023-02-24T06:32:32;11.83;;;2.73;;
22814;SDS011;11574;51.058;13.712;2023-02-24T06:37:35;14.77;;;2.57;;
22814;SDS011;11574;51.058;13.712;2023-02-24T06:42:39;19.47;;;3.37;;
22814;SDS011;11574;51.058;13.712;2023-02-24T06:47:42;11.23;;;2.63;;
22814;SDS011;11574;51.058;13.712;2023-02-24T06:52:48;10.33;;;3.23;;
22814;SDS011;11574;51.058;13.712;2023-02-24T06:57:54;19.93;;;4.27;;
22814;SDS011;11574;51.058;13.712;2023-02-24T07:02:57;13.47;;;3.70;;
22814;SDS011;11574;51.058;13.712;2023-02-24T07:08:00;15.80;;;3.87;;
22814;SDS011;11574;51.058;13.712;2023-02-24T07:13:04;17.30;;;4.47;;
22814;SDS011;11574;51.058;13.712;2023-02-24T07:18:06;10.53;;;2.93;;
22814;SDS011;11574;51.058;13.712;2023-02-24T07:23:14;20.47;;;3.60;;
22814;SDS011;11574;51.058;13.712;2023-02-24T07:28:18;11.60;;;2.13;;
22814;SDS011;11574;51.058;13.712;2023-02-24T07:33:21;17.10;;;2.90;;
22814;SDS011;11574;51.058;13.712;2023-02-24T07:38:24;13.13;;;2.53;;
22814;SDS011;11574;51.058;13.712;2023-02-24T07:43:27;16.03;;;2.80;;
22814;SDS011;11574;51.058;13.712;2023-02-24T07:48:30;11.77;;;2.00;;
22814;SDS011;11574;51.058;13.712;2023-02-24T07:53:32;13.50;;;3.20;;
22814;SDS011;11574;51.058;13.712;2023-02-24T07:58:35;23.97;;;3.40;;
22814;SDS011;11574;51.058;13.712;2023-02-24T08:03:38;18.93;;;2.97;;
22814;SDS011;11574;51.058;13.712;2023-02-24T08:08:40;20.07;;;2.83;;
22814;SDS011;11574;51.058;13.712;2023-02-24T08:13:59;16.90;;;2.40;;
22814;SDS011;11574;51.058;13.712;2023-02-24T08:19:02;15.93;;;2.83;;
22814;SDS011;11574;51.058;13.712;2023-02-24T08:24:05;18.00;;;3.10;;
22814;SDS011;11574;51.058;13.712;2023-02-24T08:29:09;19.33;;;3.07;;
22814;SDS011;11574;51.058;13.712;2023-02-24T08:34:19;20.40;;;2.80;;
22814;SDS011;11574;51.058;13.712;2023-02-24T08:39:28;14.10;;;3.00;;
22814;SDS011;11574;51.058;13.712;2023-02-24T08:44:36;20.70;;;2.83;;
22814;SDS011;11574;51.058;13.712;2023-02-24T08:49:38;17.43;;;2.30;;
22814;SDS011;11574;51.058;13.712;2023-02-24T08:54:44;16.70;;;3.00;;
22814;SDS011;11574;51.058;13.712;2023-02-24T08:59:50;13.10;;;3.30;;
22814;SDS011;11574;51.058;13.712;2023-02-24T09:04:57;14.90;;;2.77;;
22814;SDS011;11574;51.058;13.712;2023-02-24T09:09:59;11.87;;;2.17;;
22814;SDS011;11574;51.058;13.712;2023-02-24T09:15:04;20.70;;;3.27;;
22814;SDS011;11574;51.058;13.712;2023-02-24T09:20:07;11.20;;;2.13;;
22814;SDS011;11574;51.058;13.712;2023-02-24T09:25:43;11.13;;;2.63;;
22814;SDS011;11574;51.058;13.712;2023-02-24T09:30:50;15.30;;;2.50;;
22814;SDS011;11574;51.058;13.712;2023-02-24T09:35:57;13.40;;;2.90;;
22814;SDS011;11574;51.058;13.712;2023-02-24T09:41:16;12.67;;;2.80;;
22814;SDS011;11574;51.058;13.712;2023-02-24T09:46:35;10.10;;;3.00;;
22814;SDS011;11574;51.058;13.712;2023-02-24T09:51:39;13.70;;;3.57;;
22814;SDS011;11574;51.058;13.712;2023-02-24T09:56:49;13.60;;;2.67;;
22814;SDS011;11574;51.058;13.712;2023-02-24T10:02:08;12.23;;;2.97;;
22814;SDS011;11574;51.058;13.712;2023-02-24T10:07:14;11.47;;;2.53;;
22814;SDS011;11574;51.058;13.712;2023-02-24T10:12:18;9.27;;;2.63;;
22814;SDS011;11574;51.058;13.712;2023-02-24T10:17:32;10.93;;;2.80;;
22814;SDS011;11574;51.058;13.712;2023-02-24T10:22:47;17.13;;;3.97;;
22814;SDS011;11574;51.058;13.712;2023-02-24T10:27:53;8.80;;;3.37;;
22814;SDS011;11574;51.058;13.712;2023-02-24T10:33:00;10.17;;;2.67;;
22814;SDS011;11574;51.058;13.712;2023-02-24T10:38:05;11.10;;;2.73;;
22814;SDS011;11574;51.058;13.712;2023-02-24T10:43:07;9.53;;;2.83;;
22814;SDS011;11574;51.058;13.712;2023-02-24T10:48:18;5.87;;;2.83;;
22814;SDS011;11574;51.058;13.712;2023-02-24T10:53:25;6.93;;;2.43;;
22814;SDS011;11574;51.058;13.712;2023-02-24T10:58:34;10.97;;;2.43;;
22814;SDS011;11574;51.058;13.712;2023-02-24T11:03:48;10.97;;;3.00;;
22814;SDS011;11574;51.058;13.712;2023-02-24T11:09:01;8.17;;;3.50;;
22814;SDS011;11574;51.058;13.712;2023-02-24T11:14:18;7.97;;;3.27;;
22814;SDS011;11574;51.058;13.712;2023-02-24T11:19:43;9.30;;;4.00;;
22814;SDS011;11574;51.058;13.712;2023-02-24T11:24:46;6.57;;;3.37;;
22814;SDS011;11574;51.058;13.712;2023-02-24T11:29:55;7.70;;;3.60;;
22814;SDS011;11574;51.058;13.712;2023-02-24T11:35:05;6.03;;;3.10;;
22814;SDS011;11574;51.058;13.712;2023-02-24T11:40:12;8.77;;;3.73;;
22814;SDS011;11574;51.058;13.712;2023-02-24T11:45:18;10.43;;;3.13;;
22814;SDS011;11574;51.058;13.712;2023-02-24T11:50:28;8.53;;;3.00;;
22814;SDS011;11574;51.058;13.712;2023-02-24T11:55:33;8.17;;;3.60;;
22814;SDS011;11574;51.058;13.712;2023-02-24T12:00:37;11.43;;;3.40;;
22814;SDS011;11574;51.058;13.712;2023-02-24T12:05:47;8.13;;;2.93;;
22814;SDS011;11574;51.058;13.712;2023-02-24T12:10:55;12.53;;;3.10;;
22814;SDS011;11574;51.058;13.712;2023-02-24T12:16:01;4.73;;;2.90;;
22814;SDS011;11574;51.058;13.712;2023-02-24T12:21:09;9.07;;;3.67;;
22814;SDS011;11574;51.058;13.712;2023-02-24T12:26:15;8.83;;;3.13;;
22814;SDS011;11574;51.058;13.712;2023-02-24T12:31:21;8.97;;;3.80;;
22814;SDS011;11574;51.058;13.712;2023-02-24T12:36:31;11.53;;;3.73;;
22814;SDS011;11574;51.058;13.712;2023-02-24T12:41:45;12.17;;;4.37;;
22814;SDS011;11574;51.058;13.712;2023-02-24T12:46:51;10.53;;;4.63;;
22814;SDS011;11574;51.058;13.712;2023-02-24T12:51:59;12.80;;;4.80;;
22814;SDS011;11574;51.058;13.712;2023-02-24T12:57:04;11.40;;;4.63;;
22814;SDS011;11574;51.058;13.712;2023-02-24T13:02:11;13.93;;;5.33;;
22814;SDS011;11574;51.058;13.712;2023-02-24T13:07:24;11.20;;;5.00;;
22814;SDS011;11574;51.058;13.712;2023-02-24T13:12:28;10.77;;;5.43;;
22814;SDS011;11574;51.058;13.712;2023-02-24T13:17:43;9.60;;;4.37;;
22814;SDS011;11574;51.058;13.712;2023-02-24T13:22:48;12.40;;;5.80;;
22814;SDS011;11574;51.058;13.712;2023-02-24T13:27:55;13.97;;;4.93;;
22814;SDS011;11574;51.058;13.712;2023-02-24T13:32:59;13.77;;;4.20;;
22814;SDS011;11574;51.058;13.712;2023-02-24T13:38:08;14.97;;;4.83;;
22814;SDS011;11574;51.058;13.712;2023-02-24T13:43:19;15.03;;;5.67;;
22814;SDS011;11574;51.058;13.712;2023-02-24T13:48:29;9.30;;;4.90;;
22814;SDS011;11574;51.058;13.712;2023-02-24T13:53:45;9.33;;;4.93;;
22814;SDS011;11574;51.058;13.712;2023-02-24T13:58:55;10.87;;;5.57;;
22814;SDS011;11574;51.058;13.712;2023-02-24T14:04:03;13.33;;;5.33;;
22814;SDS011;11574;51.058;13.712;2023-02-24T14:09:07;11.47;;;5.47;;
22814;SDS011;11574;51.058;13.712;2023-02-24T14:14:16;9.43;;;5.00;;
22814;SDS011;11574;51.058;13.712;2023-02-24T14:19:19;10.50;;;5.17;;
22814;SDS011;11574;51.058;13.712;2023-02-24T14:24:23;9.13;;;5.37;;
22814;SDS011;11574;51.058;13.712;2023-02-24T14:29:27;14.67;;;6.00;;
22814;SDS011;11574;51.058;13.712;2023-02-24T14:34:31;19.63;;;6.47;;
22814;SDS011;11574;51.058;13.712;2023-02-24T14:39:35;10.93;;;5.23;;
22814;SDS011;11574;51.058;13.712;2023-02-24T14:44:39;14.60;;;5.57;;
22814;SDS011;11574;51.058;13.712;2023-02-24T14:49:49;12.00;;;5.20;;
22814;SDS011;11574;51.058;13.712;2023-02-24T14:54:54;11.93;;;5.07;;
22814;SDS011;11574;51.058;13.712;2023-02-24T14:59:58;13.10;;;5.17;;
22814;SDS011;11574;51.058;13.712;2023-02-24T15:05:06;8.63;;;4.40;;
22814;SDS011;11574;51.058;13.712;2023-02-24T15:10:15;11.33;;;5.50;;
22814;SDS011;11574;51.058;13.712;2023-02-24T15:15:20;12.17;;;5.23;;
22814;SDS011;11574;51.058;13.712;2023-02-24T15:20:24;12.53;;;5.43;;
22814;SDS011;11574;51.058;13.712;2023-02-24T15:25:28;12.97;;;5.17;;
22814;SDS011;11574;51.058;13.712;2023-02-24T15:30:31;8.93;;;5.07;;
22814;SDS011;11574;51.058;13.712;2023-02-24T15:35:34;8.87;;;4.50;;
22814;SDS011;11574;51.058;13.712;2023-02-24T15:40:39;11.17;;;4.80;;
22814;SDS011;11574;51.058;13.712;2023-02-24T15:45:42;11.03;;;5.10;;
22814;SDS011;11574;51.058;13.712;2023-02-24T15:50:44;12.63;;;4.57;;
22814;SDS011;11574;51.058;13.712;2023-02-24T15:55:47;10.40;;;3.50;;
22814;SDS011;11574;51.058;13.712;2023-02-24T16:00:50;7.93;;;3.23;;
22814;SDS011;11574;51.058;13.712;2023-02-24T16:05:54;8.97;;;3.50;;
22814;SDS011;11574;51.058;13.712;2023-02-24T16:10:57;9.63;;;3.77;;
22814;SDS011;11574;51.058;13.712;2023-02-24T16:15:59;11.40;;;3.73;;
22814;SDS011;11574;51.058;13.712;2023-02-24T16:21:04;8.50;;;3.37;;
22814;SDS011;11574;51.058;13.712;2023-02-24T16:26:09;10.80;;;3.97;;
22814;SDS011;11574;51.058;13.712;2023-02-24T16:31:13;10.03;;;3.93;;
22814;SDS011;11574;51.058;13.712;2023-02-24T16:36:16;9.97;;;4.20;;
22814;SDS011;11574;51.058;13.712;2023-02-24T16:41:20;9.20;;;4.20;;
22814;SDS011;11574;51.058;13.712;2023-02-24T16:46:22;8.97;;;4.40;;
22814;SDS011;11574;51.058;13.712;2023-02-24T16:51:24;8.80;;;4.40;;
22814;SDS011;11574;51.058;13.712;2023-02-24T16:56:29;7.57;;;3.83;;
22814;SDS011;11574;51.058;13.712;2023-02-24T17:01:31;8.10;;;3.80;;
22814;SDS011;11574;51.058;13.712;2023-02-24T17:06:34;7.77;;;4.07;;
22814;SDS011;11574;51.058;13.712;2023-02-24T17:11:37;9.37;;;3.90;;
22814;SDS011;11574;51.058;13.712;2023-02-24T17:16:40;7.80;;;3.67;;
22814;SDS011;11574;51.058;13.712;2023-02-24T17:21:42;6.90;;;3.70;;
22814;SDS011;11574;51.058;13.712;2023-02-24T17:26:46;10.30;;;4.17;;
22814;SDS011;11574;51.058;13.712;2023-02-24T17:31:48;6.70;;;3.83;;
22814;SDS011;11574;51.058;13.712;2023-02-24T17:36:50;9.10;;;4.43;;
22814;SDS011;11574;51.058;13.712;2023-02-24T17:41:55;9.33;;;4.50;;
22814;SDS011;11574;51.058;13.712;2023-02-24T17:46:57;7.33;;;3.63;;
22814;SDS011;11574;51.058;13.712;2023-02-24T17:51:59;7.57;;;4.30;;
22814;SDS011;11574;51.058;13.712;2023-02-24T17:57:03;9.53;;;4.33;;
22814;SDS011;11574;51.058;13.712;2023-02-24T18:02:05;8.57;;;3.93;;
22814;SDS011;11574;51.058;13.712;2023-02-24T18:07:13;6.53;;;4.03;;
22814;SDS011;11574;51.058;13.712;2023-02-24T18:12:16;5.83;;;3.13;;
22814;SDS011;11574;51.058;13.712;2023-02-24T18:17:19;7.43;;;3.40;;
22814;SDS011;11574;51.058;13.712;2023-02-24T18:22:22;4.50;;;2.47;;
22814;SDS011;11574;51.058;13.712;2023-02-24T18:27:25;4.77;;;2.37;;
22814;SDS011;11574;51.058;13.712;2023-02-24T18:32:28;7.17;;;3.13;;
22814;SDS011;11574;51.058;13.712;2023-02-24T18:37:30;4.60;;;2.00;;
22814;SDS011;11574;51.058;13.712;2023-02-24T18:42:34;4.03;;;2.30;;
22814;SDS011;11574;51.058;13.712;2023-02-24T18:47:37;3.77;;;2.40;;
22814;SDS011;11574;51.058;13.712;2023-02-24T18:52:40;4.50;;;2.10;;
22814;SDS011;11574;51.058;13.712;2023-02-24T18:57:43;5.27;;;2.00;;
22814;SDS011;11574;51.058;13.712;2023-02-24T19:02:46;4.73;;;2.20;;
22814;SDS011;11574;51.058;13.712;2023-02-24T19:07:48;4.93;;;2.77;;
22814;SDS011;11574;51.058;13.712;2023-02-24T19:12:52;5.17;;;2.83;;
22814;SDS011;11574;51.058;13.712;2023-02-24T19:17:54;3.80;;;2.53;;
22814;SDS011;11574;51.058;13.712;2023-02-24T19:22:56;5.17;;;2.90;;
22814;SDS011;11574;51.058;13.712;2023-02-24T19:28:00;4.70;;;2.53;;
22814;SDS011;11574;51.058;13.712;2023-02-24T19:33:02;4.90;;;2.30;;
22814;SDS011;11574;51.058;13.712;2023-02-24T19:38:04;4.50;;;2.50;;
22814;SDS011;11574;51.058;13.712;2023-02-24T19:43:08;5.10;;;2.53;;
22814;SDS011;11574;51.058;13.712;2023-02-24T19:48:10;3.50;;;2.45;;
22814;SDS011;11574;51.058;13.712;2023-02-24T19:53:14;3.83;;;2.13;;
22814;SDS011;11574;51.058;13.712;2023-02-24T19:58:18;2.90;;;1.93;;
22814;SDS011;11574;51.058;13.712;2023-02-24T20:03:20;4.80;;;2.30;;
22814;SDS011;11574;51.058;13.712;2023-02-24T20:08:22;5.03;;;1.90;;
22814;SDS011;11574;51.058;13.712;2023-02-24T20:13:26;3.27;;;2.47;;
22814;SDS011;11574;51.058;13.712;2023-02-24T20:18:28;5.50;;;2.77;;
22814;SDS011;11574;51.058;13.712;2023-02-24T20:23:30;3.83;;;2.53;;
22814;SDS011;11574;51.058;13.712;2023-02-24T20:28:34;5.70;;;3.20;;
22814;SDS011;11574;51.058;13.712;2023-02-24T20:33:39;4.47;;;2.97;;
22814;SDS011;11574;51.058;13.712;2023-02-24T20:38:41;6.10;;;4.30;;
22814;SDS011;11574;51.058;13.712;2023-02-24T20:43:44;4.67;;;3.47;;
22814;SDS011;11574;51.058;13.712;2023-02-24T20:48:47;5.20;;;3.80;;
22814;SDS011;11574;51.058;13.712;2023-02-24T20:53:49;5.43;;;3.80;;
22814;SDS011;11574;51.058;13.712;2023-02-24T20:58:55;6.23;;;4.60;;
22814;SDS011;11574;51.058;13.712;2023-02-24T21:03:59;8.03;;;4.63;;
22814;SDS011;11574;51.058;13.712;2023-02-24T21:09:01;11.00;;;4.40;;
22814;SDS011;11574;51.058;13.712;2023-02-24T21:14:05;9.87;;;4.73;;
22814;SDS011;11574;51.058;13.712;2023-02-24T21:19:07;8.87;;;4.80;;
22814;SDS011;11574;51.058;13.712;2023-02-24T21:24:09;8.03;;;5.40;;
22814;SDS011;11574;51.058;13.712;2023-02-24T21:29:13;8.90;;;5.17;;
22814;SDS011;11574;51.058;13.712;2023-02-24T21:34:15;8.87;;;5.27;;
22814;SDS011;11574;51.058;13.712;2023-02-24T21:39:18;10.47;;;5.40;;
22814;SDS011;11574;51.058;13.712;2023-02-24T21:44:23;7.97;;;5.50;;
22814;SDS011;11574;51.058;13.712;2023-02-24T21:49:25;11.10;;;4.93;;
22814;SDS011;11574;51.058;13.712;2023-02-24T21:54:29;8.93;;;5.10;;
22814;SDS011;11574;51.058;13.712;2023-02-24T21:59:32;9.87;;;5.30;;
22814;SDS011;11574;51.058;13.712;2023-02-24T22:04:34;11.60;;;5.47;;
22814;SDS011;11574;51.058;13.712;2023-02-24T22:09:37;9.83;;;5.97;;
22814;SDS011;11574;51.058;13.712;2023-02-24T22:14:40;10.43;;;5.90;;
22814;SDS011;11574;51.058;13.712;2023-02-24T22:19:42;13.13;;;5.10;;
22814;SDS011;11574;51.058;13.712;2023-02-24T22:24:44;11.67;;;5.50;;
22814;SDS011;11574;51.058;13.712;2023-02-24T22:29:48;12.27;;;6.10;;
22814;SDS011;11574;51.058;13.712;2023-02-24T22:34:51;11.63;;;5.83;;
22814;SDS011;11574;51.058;13.712;2023-02-24T22:39:53;11.47;;;5.23;;
22814;SDS011;11574;51.058;13.712;2023-02-24T22:44:56;9.20;;;5.37;;
22814;SDS011;11574;51.058;13.712;2023-02-24T22:49:59;11.13;;;5.80;;
22814;SDS011;11574;51.058;13.712;2023-02-24T22:55:01;8.80;;;5.00;;
22814;SDS011;11574;51.058;13.712;2023-02-24T23:00:05;6.43;;;4.83;;
22814;SDS011;11574;51.058;13.712;2023-02-24T23:05:09;9.37;;;5.70;;
22814;SDS011;11574;51.058;13.712;2023-02-24T23:10:11;8.57;;;5.50;;
22814;SDS011;11574;51.058;13.712;2023-02-24T23:15:15;10.03;;;4.90;;
22814;SDS011;11574;51.058;13.712;2023-02-24T23:20:17;10.57;;;6.20;;
22814;SDS011;11574;51.058;13.712;2023-02-24T23:25:20;12.13;;;6.33;;
22814;SDS011;11574;51.058;13.712;2023-02-24T23:30:23;10.73;;;6.30;;
22814;SDS011;11574;51.058;13.712;2023-02-24T23:35:25;12.30;;;6.60;;
22814;SDS011;11574;51.058;13.712;2023-02-24T23:40:27;15.13;;;6.47;;
22814;SDS011;11574;51.058;13.712;2023-02-24T23:45:34;9.50;;;5.90;;
22814;SDS011;11574;51.058;13.712;2023-02-24T23:50:36;9.17;;;5.60;;
22814;SDS011;11574;51.058;13.712;2023-02-24T23:55:39;9.63;;;5.13;;
